Time;durP1;ratioP1;P1;durP2;ratioP2;P2;SDS_P1;SDS_P2;PMS_P1;PMS_P2;Temp;Humidity;BMP_temperature;BMP_pressure;BME280_temperature;BME280_humidity;BME280_pressure;Samples;Min_cycle;Max_cycle;Signal;HPM_P1;HPM_P2
2021/04/13 00:00:04;;;;;;;2.33;1.05;;;25.60;54.00;;;;;;5086419;28;20400;-78
2021/04/13 00:02:51;;;;;;;1.75;0.70;;;26.10;54.00;;;;;;5085590;28;20403;-79
2021/04/13 00:05:40;;;;;;;4.40;0.93;;;26.20;52.90;;;;;;5079459;28;20398;-80
2021/04/13 00:08:22;;;;;;;2.60;0.82;;;26.20;56.40;;;;;;5083474;28;20383;-79
2021/04/13 00:10:57;;;;;;;4.23;0.93;;;26.30;54.10;;;;;;5068882;28;20366;-78
2021/04/13 00:13:25;;;;;;;3.58;0.90;;;25.80;51.20;;;;;;5079175;28;20400;-78
2021/04/13 00:15:55;;;;;;;3.80;1.05;;;25.70;53.90;;;;;;5080664;28;20396;-78
2021/04/13 00:18:29;;;;;;;2.53;0.80;;;25.50;55.20;;;;;;5090137;28;20360;-79
2021/04/13 00:21:04;;;;;;;3.40;0.93;;;25.00;51.70;;;;;;5076552;28;20404;-79
2021/04/13 00:23:31;;;;;;;2.00;0.80;;;24.00;57.40;;;;;;5077818;28;20429;-77
2021/04/13 00:26:01;;;;;;;4.85;1.38;;;24.40;57.60;;;;;;5091210;28;20387;-80
2021/04/13 00:28:31;;;;;;;3.55;1.08;;;24.30;56.60;;;;;;5084883;28;20421;-80
2021/04/13 00:31:02;;;;;;;4.30;1.23;;;24.30;56.70;;;;;;5087936;28;20537;-80
2021/04/13 00:33:32;;;;;;;3.95;1.00;;;24.60;56.40;;;;;;5082814;28;20396;-80
2021/04/13 00:36:08;;;;;;;5.28;1.25;;;24.60;55.50;;;;;;5072669;28;20393;-80
2021/04/13 00:38:42;;;;;;;4.68;1.08;;;24.90;57.50;;;;;;5076463;28;20401;-78
2021/04/13 00:41:21;;;;;;;4.70;1.17;;;24.90;54.90;;;;;;5087029;28;20376;-78
2021/04/13 00:44:09;;;;;;;4.90;1.20;;;25.40;55.10;;;;;;5088287;28;20387;-78
2021/04/13 00:46:59;;;;;;;2.75;1.20;;;25.30;54.20;;;;;;5087428;28;20437;-77
2021/04/13 00:49:30;;;;;;;4.85;1.33;;;25.20;55.70;;;;;;5081444;28;20737;-80
2021/04/13 00:52:06;;;;;;;3.30;1.08;;;25.10;55.10;;;;;;5082124;28;21698;-80
2021/04/13 00:54:41;;;;;;;2.28;0.90;;;25.00;56.20;;;;;;5083413;28;20869;-80
2021/04/13 00:57:16;;;;;;;4.22;1.20;;;24.70;56.90;;;;;;5078360;28;20392;-78
2021/04/13 00:59:45;;;;;;;4.85;0.93;;;24.30;57.10;;;;;;5085599;28;20423;-78
2021/04/13 01:02:18;;;;;;;3.70;1.20;;;23.70;56.40;;;;;;5085780;28;20392;-78
2021/04/13 01:04:52;;;;;;;3.53;1.15;;;23.30;57.00;;;;;;5079610;28;20480;-78
2021/04/13 01:07:43;;;;;;;4.47;1.27;;;22.60;58.60;;;;;;5072710;28;21323;-78
2021/04/13 01:10:19;;;;;;;5.03;1.30;;;21.80;65.30;;;;;;5083293;28;20391;-78
2021/04/13 01:13:03;;;;;;;3.30;0.88;;;21.10;64.70;;;;;;5072983;28;20382;-78
2021/04/13 01:15:30;;;;;;;3.40;0.67;;;20.50;64.40;;;;;;5083516;28;20467;-78
2021/04/13 01:17:57;;;;;;;3.88;1.15;;;20.00;67.90;;;;;;5086087;28;20381;-78
2021/04/13 01:20:41;;;;;;;4.13;1.05;;;19.90;68.10;;;;;;5075353;28;20390;-79
2021/04/13 01:23:14;;;;;;;2.28;0.93;;;19.60;70.00;;;;;;5075680;28;20443;-78
2021/04/13 01:25:44;;;;;;;2.97;1.10;;;19.50;68.80;;;;;;5080685;28;20411;-78
2021/04/13 01:28:18;;;;;;;3.13;1.10;;;19.30;70.00;;;;;;5102148;28;20470;-78
2021/04/13 01:30:55;;;;;;;7.70;1.23;;;19.10;70.70;;;;;;5093572;28;20407;-78
2021/04/13 01:33:54;;;;;;;6.63;1.10;;;19.00;72.10;;;;;;5088399;28;20445;-78
2021/04/13 01:36:25;;;;;;;3.05;0.90;;;19.00;73.30;;;;;;5083208;28;20934;-77
2021/04/13 01:39:24;;;;;;;2.53;0.90;;;19.00;74.30;;;;;;5087873;28;20441;-77
2021/04/13 01:41:58;;;;;;;4.20;0.98;;;19.00;72.40;;;;;;5082000;28;20441;-77
2021/04/13 01:44:50;;;;;;;5.65;1.50;;;19.00;74.20;;;;;;5079176;28;20416;-77
2021/04/13 01:47:21;;;;;;;6.03;1.20;;;19.10;73.40;;;;;;5086128;28;20446;-77
2021/04/13 01:50:00;;;;;;;3.65;1.13;;;19.10;73.10;;;;;;5079888;28;20412;-77
2021/04/13 01:52:45;;;;;;;4.18;1.10;;;19.10;70.50;;;;;;5088947;28;20380;-78
2021/04/13 01:55:15;;;;;;;4.65;1.00;;;19.10;73.00;;;;;;5084587;28;20442;-78
2021/04/13 01:57:56;;;;;;;5.10;1.20;;;19.10;71.60;;;;;;5087414;28;20395;-78
2021/04/13 02:00:29;;;;;;;4.50;1.07;;;19.00;73.60;;;;;;5076791;28;20536;-78
2021/04/13 02:03:08;;;;;;;3.45;0.82;;;19.00;72.60;;;;;;5069885;28;20378;-79
2021/04/13 02:05:40;;;;;;;2.33;0.80;;;19.10;74.40;;;;;;5086507;28;20458;-79
2021/04/13 02:08:36;;;;;;;4.00;0.98;;;19.10;74.30;;;;;;5082321;28;20388;-78
2021/04/13 02:11:27;;;;;;;4.22;1.20;;;19.10;75.70;;;;;;5087100;28;20382;-79
2021/04/13 02:14:07;;;;;;;5.73;0.93;;;19.20;72.70;;;;;;5080114;28;21114;-78
2021/04/13 02:17:06;;;;;;;2.50;0.88;;;19.30;71.60;;;;;;5079313;28;20388;-78
2021/04/13 02:19:34;;;;;;;6.18;1.10;;;19.30;72.90;;;;;;5082427;28;20437;-78
2021/04/13 02:22:10;;;;;;;3.38;1.10;;;19.30;73.50;;;;;;5087703;28;20463;-79
2021/04/13 02:24:38;;;;;;;4.28;1.13;;;19.30;76.20;;;;;;5077408;28;20390;-78
2021/04/13 02:27:12;;;;;;;5.68;1.10;;;19.40;75.50;;;;;;5087958;28;20399;-78
2021/04/13 02:29:47;;;;;;;3.97;1.30;;;19.40;76.30;;;;;;5083525;28;20757;-78
2021/04/13 02:32:28;;;;;;;5.25;1.00;;;19.50;74.00;;;;;;5093959;28;20899;-80
2021/04/13 02:34:59;;;;;;;3.20;0.90;;;19.60;75.80;;;;;;5089990;28;20410;-79
2021/04/13 02:37:39;;;;;;;4.03;0.95;;;19.70;73.50;;;;;;5093071;28;20369;-80
2021/04/13 02:40:11;;;;;;;4.28;1.10;;;19.70;75.10;;;;;;5090874;28;20360;-79
2021/04/13 02:42:44;;;;;;;3.70;0.88;;;19.60;73.00;;;;;;5086993;28;20482;-79
2021/04/13 02:45:23;;;;;;;3.00;0.90;;;19.50;73.90;;;;;;5082809;28;20394;-79
2021/04/13 02:48:01;;;;;;;2.90;0.93;;;19.60;72.80;;;;;;5081698;28;20388;-77
2021/04/13 02:50:31;;;;;;;4.30;0.80;;;19.60;73.70;;;;;;5085268;28;20414;-80
2021/04/13 02:53:03;;;;;;;4.38;1.00;;;19.70;71.00;;;;;;5077867;28;20400;-79
2021/04/13 02:55:35;;;;;;;5.05;0.93;;;19.60;72.60;;;;;;5068760;28;20473;-79
2021/04/13 02:58:06;;;;;;;3.53;0.90;;;19.70;73.90;;;;;;5074558;28;20388;-78
2021/04/13 03:00:42;;;;;;;2.42;0.93;;;19.70;70.70;;;;;;5081474;28;20883;-78
2021/04/13 03:03:14;;;;;;;1.75;0.70;;;19.70;67.80;;;;;;5074561;28;20394;-79
2021/04/13 03:05:42;;;;;;;4.50;0.90;;;19.90;65.50;;;;;;5070132;28;20442;-79
2021/04/13 03:08:14;;;;;;;2.08;0.80;;;20.00;64.30;;;;;;5080336;28;20395;-78
2021/04/13 03:10:50;;;;;;;2.38;0.70;;;19.90;64.30;;;;;;5084891;28;20814;-80
2021/04/13 03:13:20;;;;;;;3.65;0.93;;;20.00;63.80;;;;;;5082682;28;20465;-79
2021/04/13 03:15:54;;;;;;;3.95;0.80;;;19.90;64.90;;;;;;5097818;28;20393;-80
2021/04/13 03:18:27;;;;;;;3.15;0.68;;;19.90;60.90;;;;;;5091331;28;20408;-79
2021/04/13 03:21:00;;;;;;;1.27;0.60;;;19.80;65.00;;;;;;5091343;28;20381;-79
2021/04/13 03:23:30;;;;;;;3.50;0.90;;;19.80;64.80;;;;;;5078565;28;20417;-79
2021/04/13 03:26:01;;;;;;;2.92;0.82;;;19.80;62.80;;;;;;5070173;28;20426;-79
2021/04/13 03:28:35;;;;;;;2.10;0.80;;;19.80;63.90;;;;;;5083223;28;20459;-79
2021/04/13 03:31:04;;;;;;;4.20;1.08;;;19.90;65.80;;;;;;5091220;28;20871;-79
2021/04/13 03:33:36;;;;;;;3.33;0.90;;;19.90;65.20;;;;;;5090560;28;20435;-79
2021/04/13 03:36:20;;;;;;;4.22;0.80;;;20.10;64.00;;;;;;5085802;28;20420;-79
2021/04/13 03:38:50;;;;;;;3.67;0.85;;;20.20;63.20;;;;;;5086594;28;21241;-79
2021/04/13 03:41:20;;;;;;;3.40;0.70;;;20.20;65.00;;;;;;5089898;28;20377;-79
2021/04/13 03:43:55;;;;;;;2.03;0.70;;;20.20;63.60;;;;;;5081995;28;20473;-79
2021/04/13 03:46:25;;;;;;;3.05;0.85;;;20.20;63.50;;;;;;5070820;28;20385;-80
2021/04/13 03:48:53;;;;;;;2.40;0.85;;;20.20;64.40;;;;;;5072073;28;20399;-78
2021/04/13 03:51:32;;;;;;;3.23;1.03;;;20.20;63.20;;;;;;5078737;28;20390;-79
2021/04/13 03:53:59;;;;;;;1.67;0.52;;;20.20;64.40;;;;;;5086630;28;20408;-78
2021/04/13 03:56:27;;;;;;;3.60;0.85;;;20.10;66.40;;;;;;5090783;28;20747;-79
2021/04/13 03:58:56;;;;;;;4.80;1.00;;;20.20;66.10;;;;;;5081374;28;20415;-78
2021/04/13 04:01:29;;;;;;;2.50;0.70;;;20.10;65.90;;;;;;5088036;28;20475;-80
2021/04/13 04:04:06;;;;;;;3.00;0.80;;;20.20;65.20;;;;;;5078925;28;20803;-81
2021/04/13 04:06:46;;;;;;;2.40;0.75;;;20.20;65.40;;;;;;5078979;28;20393;-79
2021/04/13 04:09:19;;;;;;;2.85;0.95;;;20.20;67.80;;;;;;5085880;28;20799;-79
2021/04/13 04:11:47;;;;;;;2.90;0.80;;;20.20;66.70;;;;;;5102180;28;20378;-79
2021/04/13 04:14:19;;;;;;;3.03;0.87;;;20.30;67.30;;;;;;5076530;28;20404;-80
2021/04/13 04:16:47;;;;;;;2.80;0.80;;;20.30;64.40;;;;;;5080197;28;20403;-79
2021/04/13 04:19:19;;;;;;;2.95;0.70;;;20.20;66.10;;;;;;5082804;28;20393;-78
2021/04/13 04:21:59;;;;;;;2.85;0.75;;;20.20;66.30;;;;;;5087265;28;20865;-79
2021/04/13 04:24:41;;;;;;;4.90;0.90;;;20.30;64.90;;;;;;5074383;28;20754;-79
2021/04/13 04:27:36;;;;;;;2.40;0.70;;;20.20;66.60;;;;;;5080119;28;20399;-79
2021/04/13 04:30:15;;;;;;;2.78;0.98;;;20.20;66.50;;;;;;5086355;28;20418;-79
2021/04/13 04:32:44;;;;;;;3.67;0.80;;;20.20;67.90;;;;;;5089847;28;20871;-80
2021/04/13 04:35:35;;;;;;;3.38;0.65;;;20.10;66.70;;;;;;5081823;28;20439;-81
2021/04/13 04:38:05;;;;;;;2.03;0.75;;;20.10;66.30;;;;;;5083624;28;20396;-79
2021/04/13 04:40:32;;;;;;;2.38;0.80;;;20.10;66.30;;;;;;5076039;28;20974;-79
2021/04/13 04:43:14;;;;;;;2.72;0.90;;;20.10;65.30;;;;;;5069857;28;20374;-79
2021/04/13 04:45:44;;;;;;;4.78;0.80;;;20.10;65.00;;;;;;5085646;28;20818;-80
2021/04/13 04:48:34;;;;;;;4.45;0.80;;;20.10;65.20;;;;;;5086778;28;20910;-80
2021/04/13 04:51:03;;;;;;;2.80;0.70;;;20.10;66.20;;;;;;5088776;28;20880;-78
2021/04/13 04:53:31;;;;;;;3.95;0.88;;;20.10;67.70;;;;;;5086612;28;20450;-79
2021/04/13 04:56:00;;;;;;;3.35;0.82;;;20.00;64.60;;;;;;5089313;28;20384;-79
2021/04/13 04:58:27;;;;;;;3.08;0.70;;;20.00;64.70;;;;;;5088717;28;20483;-80
2021/04/13 05:00:55;;;;;;;4.72;1.02;;;20.00;64.50;;;;;;5080832;28;20382;-79
2021/04/13 05:03:24;;;;;;;2.78;0.82;;;20.00;66.40;;;;;;5081596;28;20751;-80
2021/04/13 05:05:52;;;;;;;2.72;0.95;;;20.00;68.90;;;;;;5080830;28;20374;-79
2021/04/13 05:08:22;;;;;;;3.35;1.17;;;20.00;65.30;;;;;;5087309;28;20874;-80
2021/04/13 05:10:50;;;;;;;2.05;0.82;;;20.00;65.60;;;;;;5089276;28;20379;-81
2021/04/13 05:13:19;;;;;;;4.25;1.25;;;19.90;66.80;;;;;;5082248;28;20392;-79
2021/04/13 05:15:46;;;;;;;2.97;0.90;;;19.90;66.10;;;;;;5086847;28;20445;-79
2021/04/13 05:18:14;;;;;;;2.10;0.70;;;19.80;67.10;;;;;;5085770;28;20384;-79
2021/04/13 05:20:41;;;;;;;3.22;0.93;;;19.80;68.30;;;;;;5085359;28;20400;-80
2021/04/13 05:23:08;;;;;;;3.60;0.80;;;19.80;67.40;;;;;;5095210;28;20456;-79
2021/04/13 05:25:35;;;;;;;1.98;0.90;;;19.70;67.70;;;;;;5086330;28;20393;-80
2021/04/13 05:28:02;;;;;;;3.28;1.00;;;19.70;65.80;;;;;;5078876;28;20424;-80
2021/04/13 05:30:30;;;;;;;2.88;0.80;;;19.70;67.10;;;;;;5078042;28;20386;-79
2021/04/13 05:32:57;;;;;;;2.95;0.82;;;19.70;67.60;;;;;;5075205;28;20499;-80
2021/04/13 05:35:25;;;;;;;2.13;0.80;;;19.60;69.50;;;;;;5080120;28;20491;-79
2021/04/13 05:37:52;;;;;;;2.93;1.07;;;19.60;70.40;;;;;;5080947;28;20404;-80
2021/04/13 05:40:25;;;;;;;3.80;0.98;;;19.50;71.30;;;;;;5068413;28;20718;-80
2021/04/13 05:42:56;;;;;;;3.42;0.80;;;19.40;72.60;;;;;;5078229;28;20378;-79
2021/04/13 05:45:27;;;;;;;2.05;0.90;;;19.40;73.30;;;;;;5079864;28;20399;-79
2021/04/13 05:47:54;;;;;;;5.13;0.90;;;19.40;73.00;;;;;;5083426;28;20388;-79
2021/04/13 05:50:29;;;;;;;3.15;0.85;;;19.30;74.90;;;;;;5087582;28;20446;-80
2021/04/13 05:52:56;;;;;;;8.00;1.10;;;19.30;76.30;;;;;;5069834;28;20401;-79
2021/04/13 05:55:23;;;;;;;4.15;1.00;;;19.20;79.20;;;;;;5086403;28;20392;-80
2021/04/13 05:57:53;;;;;;;8.85;1.50;;;19.10;81.90;;;;;;5092790;28;20383;-78
2021/04/13 06:00:23;;;;;;;5.90;1.50;;;19.00;83.60;;;;;;5094746;28;20376;-79
2021/04/13 06:02:51;;;;;;;3.67;0.80;;;19.00;85.90;;;;;;5095668;28;20426;-79
2021/04/13 06:05:23;;;;;;;4.00;1.20;;;18.90;88.10;;;;;;5092882;28;20419;-80
2021/04/13 06:07:51;;;;;;;5.82;1.13;;;18.80;89.50;;;;;;5094131;28;20961;-80
2021/04/13 06:10:18;;;;;;;4.70;1.23;;;18.70;90.50;;;;;;5076696;28;20979;-79
2021/04/13 06:12:55;;;;;;;5.13;1.23;;;18.70;91.20;;;;;;5078420;28;20400;-79
2021/04/13 06:15:24;;;;;;;6.72;1.08;;;18.50;92.10;;;;;;5079206;28;20764;-79
2021/04/13 06:17:51;;;;;;;4.50;1.08;;;18.50;92.40;;;;;;5092187;28;20380;-80
2021/04/13 06:20:21;;;;;;;5.75;1.30;;;18.40;93.50;;;;;;5092166;28;20386;-80
2021/04/13 06:22:49;;;;;;;6.20;1.45;;;18.30;93.90;;;;;;5081841;28;20471;-78
2021/04/13 06:25:21;;;;;;;6.05;1.05;;;18.30;94.90;;;;;;5105094;28;20401;-79
2021/04/13 06:27:49;;;;;;;7.82;1.30;;;18.20;95.50;;;;;;5077240;28;20383;-79
2021/04/13 06:30:17;;;;;;;4.60;0.90;;;18.10;96.50;;;;;;5082731;28;20406;-80
2021/04/13 06:32:44;;;;;;;4.00;1.30;;;18.00;96.30;;;;;;5081098;28;20845;-80
2021/04/13 06:35:11;;;;;;;5.68;1.15;;;18.00;96.90;;;;;;5093453;28;20408;-80
2021/04/13 06:37:42;;;;;;;7.78;1.48;;;17.90;97.70;;;;;;5095535;28;20372;-80
2021/04/13 06:40:16;;;;;;;6.32;1.40;;;17.90;98.60;;;;;;5095179;28;20433;-80
2021/04/13 06:43:06;;;;;;;4.35;1.25;;;17.80;99.50;;;;;;5095200;28;20377;-81
2021/04/13 06:45:57;;;;;;;6.95;1.23;;;17.70;99.40;;;;;;5092274;28;20380;-80
2021/04/13 06:49:03;;;;;;;4.72;1.08;;;17.70;99.70;;;;;;5074190;28;20408;-80
2021/04/13 06:51:38;;;;;;;8.02;1.33;;;17.70;99.90;;;;;;5040095;28;20405;-80
2021/04/13 06:54:17;;;;;;;7.80;1.50;;;17.70;99.90;;;;;;5090837;28;20749;-80
2021/04/13 06:57:12;;;;;;;3.58;1.13;;;17.60;99.90;;;;;;5091916;28;20395;-80
2021/04/13 06:59:52;;;;;;;6.97;1.25;;;17.60;99.90;;;;;;5086995;28;20476;-80
2021/04/13 07:02:33;;;;;;;6.53;1.63;;;17.50;99.90;;;;;;5074718;28;20394;-80
2021/04/13 07:05:02;;;;;;;9.50;1.65;;;17.50;99.90;;;;;;5087161;28;20395;-80
2021/04/13 07:07:41;;;;;;;5.50;1.23;;;17.40;99.90;;;;;;5090648;28;21012;-79
2021/04/13 07:10:27;;;;;;;6.75;1.50;;;17.30;99.90;;;;;;5090505;28;20395;-79
2021/04/13 07:13:08;;;;;;;4.73;2.20;;;17.20;99.90;;;;;;5089292;28;20446;-80
2021/04/13 07:16:08;;;;;;;7.43;1.43;;;17.20;99.90;;;;;;5081195;28;20436;-79
2021/04/13 07:18:45;;;;;;;8.18;1.90;;;17.10;99.90;;;;;;5069050;28;20726;-79
2021/04/13 07:21:24;;;;;;;8.88;1.50;;;17.00;99.90;;;;;;5088837;28;20465;-80
2021/04/13 07:24:23;;;;;;;10.00;1.65;;;17.00;99.90;;;;;;5087822;28;20739;-79
2021/04/13 07:27:03;;;;;;;9.13;1.80;;;16.90;99.90;;;;;;5074704;28;20376;-79
2021/04/13 07:29:54;;;;;;;10.32;1.95;;;16.80;99.90;;;;;;5086656;28;20401;-80
2021/04/13 07:32:24;;;;;;;9.93;1.83;;;16.70;99.90;;;;;;5082065;28;20392;-80
2021/04/13 07:34:58;;;;;;;9.27;1.80;;;16.60;99.90;;;;;;5086948;28;20400;-80
2021/04/13 07:37:33;;;;;;;7.53;1.90;;;16.60;99.90;;;;;;5117566;27;20369;-80
2021/04/13 07:40:06;;;;;;;7.80;2.00;;;16.50;99.90;;;;;;5090978;28;20709;-80
2021/04/13 07:42:38;;;;;;;7.60;1.45;;;16.50;99.90;;;;;;5090945;28;20387;-80
2021/04/13 07:45:23;;;;;;;7.53;1.65;;;16.30;99.90;;;;;;5086867;28;20795;-80
2021/04/13 07:48:04;;;;;;;8.55;1.65;;;16.30;99.90;;;;;;5088105;28;20467;-80
2021/04/13 07:51:00;;;;;;;10.73;1.83;;;16.20;99.90;;;;;;5069661;28;20435;-80
2021/04/13 07:53:27;;;;;;;8.90;1.80;;;16.10;99.90;;;;;;5047016;28;20400;-79
2021/04/13 07:56:00;;;;;;;7.28;1.83;;;16.10;99.90;;;;;;5081671;28;20427;-80
2021/04/13 07:58:49;;;;;;;12.23;2.03;;;16.00;99.90;;;;;;5089551;28;20827;-81
2021/04/13 08:01:17;;;;;;;7.50;2.13;;;16.00;99.90;;;;;;5082244;28;20398;-79
2021/04/13 08:03:44;;;;;;;6.68;1.80;;;16.00;99.90;;;;;;5087288;28;20441;-79
2021/04/13 08:06:29;;;;;;;7.03;1.80;;;15.90;99.90;;;;;;5070338;28;21260;-80
2021/04/13 08:09:34;;;;;;;4.70;1.75;;;15.90;99.90;;;;;;5074833;28;20531;-79
2021/04/13 08:12:22;;;;;;;6.03;1.77;;;15.80;99.90;;;;;;5072108;28;20390;-81
2021/04/13 08:15:13;;;;;;;7.00;1.63;;;15.70;99.90;;;;;;5080004;28;20436;-79
2021/04/13 08:18:20;;;;;;;10.65;2.20;;;15.70;99.90;;;;;;5072253;28;20398;-79
2021/04/13 08:20:48;;;;;;;7.45;1.42;;;15.70;99.90;;;;;;5069446;28;20402;-79
2021/04/13 08:23:27;;;;;;;6.82;1.25;;;15.60;99.90;;;;;;5081309;28;21007;-78
2021/04/13 08:26:11;;;;;;;7.85;1.42;;;15.60;99.90;;;;;;5076011;28;20491;-78
2021/04/13 08:28:38;;;;;;;5.78;1.45;;;15.60;99.90;;;;;;5086213;28;20877;-78
2021/04/13 08:34:22;;;;;;;8.52;1.60;;;15.60;99.90;;;;;;5075440;28;20416;-79
2021/04/13 08:37:06;;;;;;;8.77;1.53;;;15.50;99.90;;;;;;5079780;28;20391;-78
2021/04/13 08:39:51;;;;;;;10.15;1.70;;;15.50;99.90;;;;;;5090130;28;20381;-79
2021/04/13 08:42:24;;;;;;;6.57;1.88;;;15.60;99.90;;;;;;5069579;28;20449;-79
2021/04/13 08:45:26;;;;;;;7.18;1.90;;;15.50;99.90;;;;;;5082039;28;20408;-78
2021/04/13 08:48:05;;;;;;;5.80;1.85;;;15.40;99.90;;;;;;5077261;28;20395;-79
2021/04/13 08:50:40;;;;;;;5.47;1.73;;;15.40;99.90;;;;;;5087752;28;20745;-79
2021/04/13 08:53:27;;;;;;;5.43;1.80;;;15.40;99.90;;;;;;5086916;28;20418;-79
2021/04/13 08:56:11;;;;;;;7.05;2.00;;;15.30;99.90;;;;;;5088613;28;20400;-79
2021/04/13 08:59:02;;;;;;;7.97;1.63;;;15.30;99.90;;;;;;5084523;28;20472;-79
2021/04/13 09:01:36;;;;;;;5.53;1.60;;;15.20;99.90;;;;;;5079258;28;20381;-80
2021/04/13 09:04:13;;;;;;;9.73;1.75;;;15.20;99.90;;;;;;5089860;28;20467;-80
2021/04/13 09:07:00;;;;;;;6.25;1.45;;;15.10;99.90;;;;;;5090310;28;20851;-80
2021/04/13 09:09:42;;;;;;;10.10;1.80;;;15.10;99.90;;;;;;5083184;28;20403;-79
2021/04/13 09:12:30;;;;;;;7.05;1.60;;;15.10;99.90;;;;;;5072821;28;20382;-80
2021/04/13 09:15:21;;;;;;;6.80;1.77;;;15.20;99.90;;;;;;5067535;28;20769;-80
2021/04/13 09:18:09;;;;;;;9.07;1.60;;;15.10;99.90;;;;;;5079193;28;21276;-83
2021/04/13 09:20:50;;;;;;;6.22;1.70;;;15.20;99.90;;;;;;5073623;28;20727;-82
2021/04/13 09:23:23;;;;;;;6.10;1.70;;;15.10;99.90;;;;;;5069559;28;20381;-80
2021/04/13 09:26:02;;;;;;;7.30;1.70;;;15.10;99.90;;;;;;5085307;28;20416;-80
2021/04/13 09:28:49;;;;;;;8.32;1.63;;;15.10;99.90;;;;;;5069168;28;20382;-80
2021/04/13 09:31:20;;;;;;;5.47;1.48;;;15.10;99.90;;;;;;5079765;28;20475;-80
2021/04/13 09:33:49;;;;;;;5.23;1.20;;;15.10;99.90;;;;;;5084371;28;20402;-81
2021/04/13 09:36:33;;;;;;;5.25;1.45;;;15.10;99.90;;;;;;5086383;28;20442;-79
2021/04/13 09:39:22;;;;;;;8.25;1.60;;;15.10;99.90;;;;;;5077765;28;20475;-81
2021/04/13 09:42:15;;;;;;;6.55;1.52;;;15.10;99.90;;;;;;5080194;28;20439;-81
2021/04/13 09:45:00;;;;;;;8.25;1.75;;;15.00;99.90;;;;;;5081866;28;20805;-81
2021/04/13 09:47:59;;;;;;;5.53;1.75;;;15.00;99.90;;;;;;5077732;28;20388;-81
2021/04/13 09:50:59;;;;;;;9.32;1.80;;;15.00;99.90;;;;;;5076265;28;20410;-81
2021/04/13 09:53:51;;;;;;;6.43;1.70;;;14.90;99.90;;;;;;5085726;28;20388;-83
2021/04/13 09:56:45;;;;;;;6.13;1.70;;;15.00;99.90;;;;;;5078272;28;20532;-82
2021/04/13 09:59:42;;;;;;;7.72;1.63;;;14.90;99.90;;;;;;5082349;28;20503;-81
2021/04/13 10:02:53;;;;;;;6.95;1.80;;;14.90;99.90;;;;;;5067203;28;20401;-80
2021/04/13 10:05:36;;;;;;;10.07;1.88;;;14.90;99.90;;;;;;5065370;28;20488;-80
2021/04/13 10:08:15;;;;;;;6.47;1.80;;;14.80;99.90;;;;;;5083042;28;20384;-81
2021/04/13 10:11:10;;;;;;;7.60;1.40;;;14.80;99.90;;;;;;5084983;28;20395;-80
2021/04/13 10:14:03;;;;;;;8.50;1.58;;;14.80;99.90;;;;;;5082766;28;20503;-80
2021/04/13 10:17:04;;;;;;;4.25;1.40;;;14.80;99.90;;;;;;5082865;28;20393;-80
2021/04/13 10:19:46;;;;;;;7.25;1.65;;;14.70;99.90;;;;;;5082046;28;20395;-81
2021/04/13 10:22:52;;;;;;;5.50;1.70;;;14.60;99.90;;;;;;5075130;28;20415;-81
2021/04/13 10:25:56;;;;;;;4.63;1.27;;;14.60;99.90;;;;;;5058908;28;20485;-81
2021/04/13 10:28:38;;;;;;;5.32;1.45;;;14.50;99.90;;;;;;5084274;28;20881;-81
2021/04/13 10:31:30;;;;;;;8.93;1.63;;;14.50;99.90;;;;;;5080986;28;20420;-81
2021/04/13 10:34:15;;;;;;;7.10;1.65;;;14.50;99.90;;;;;;5065270;28;20405;-81
2021/04/13 10:37:04;;;;;;;9.07;1.65;;;14.40;99.90;;;;;;5084932;28;20391;-81
2021/04/13 10:39:41;;;;;;;12.03;1.90;;;14.40;99.90;;;;;;5079795;28;20900;-80
2021/04/13 10:42:33;;;;;;;10.30;2.30;;;14.30;99.90;;;;;;5081597;28;20455;-80
2021/04/13 10:45:08;;;;;;;9.93;2.45;;;14.30;99.90;;;;;;5072271;28;20424;-80
2021/04/13 10:48:10;;;;;;;7.40;2.30;;;14.20;99.90;;;;;;5082737;28;20396;-81
2021/04/13 10:51:21;;;;;;;10.27;3.23;;;14.20;99.90;;;;;;5076099;28;20924;-80
2021/04/13 10:54:17;;;;;;;8.30;2.58;;;14.10;99.90;;;;;;5038580;28;20458;-81
2021/04/13 10:57:22;;;;;;;10.13;2.05;;;14.00;99.90;;;;;;5069595;28;20396;-81
2021/04/13 10:59:52;;;;;;;7.40;2.10;;;14.10;99.90;;;;;;5074770;28;20411;-79
2021/04/13 11:02:40;;;;;;;8.88;1.85;;;14.00;99.90;;;;;;5087677;28;20384;-80
2021/04/13 11:05:32;;;;;;;7.32;1.67;;;14.00;99.90;;;;;;5083261;28;20384;-80
2021/04/13 11:08:44;;;;;;;11.07;1.92;;;14.00;99.90;;;;;;5087174;28;20400;-80
2021/04/13 11:11:32;;;;;;;5.57;1.90;;;14.00;99.90;;;;;;5080634;28;20396;-79
2021/04/13 11:14:40;;;;;;;7.93;1.75;;;13.90;99.90;;;;;;5080180;28;20414;-81
2021/04/13 11:17:33;;;;;;;7.10;2.13;;;13.90;99.90;;;;;;5069767;28;20904;-80
2021/04/13 11:20:22;;;;;;;7.82;1.98;;;13.80;99.90;;;;;;5067747;28;20405;-80
2021/04/13 11:23:19;;;;;;;8.38;1.98;;;13.80;99.90;;;;;;5083325;28;20748;-80
2021/04/13 11:26:12;;;;;;;6.63;1.80;;;13.80;99.90;;;;;;5087336;28;20435;-80
2021/04/13 11:29:08;;;;;;;7.90;1.67;;;13.70;99.90;;;;;;5071948;28;20395;-80
2021/04/13 11:32:19;;;;;;;7.43;1.90;;;13.70;99.90;;;;;;5085616;28;20879;-80
2021/04/13 11:35:15;;;;;;;6.88;1.70;;;13.70;99.90;;;;;;5024062;28;20789;-80
2021/04/13 11:37:55;;;;;;;6.57;1.70;;;13.70;99.90;;;;;;5069857;28;20404;-81
2021/04/13 11:40:33;;;;;;;6.22;1.33;;;13.80;99.90;;;;;;5086013;28;20929;-81
2021/04/13 11:43:02;;;;;;;8.70;1.52;;;13.80;99.90;;;;;;5081071;28;20400;-81
2021/04/13 11:45:44;;;;;;;8.48;1.80;;;13.70;99.90;;;;;;5088203;28;20392;-81
2021/04/13 11:48:24;;;;;;;5.55;1.73;;;13.60;99.90;;;;;;5088261;28;20425;-81
2021/04/13 11:51:18;;;;;;;5.95;1.60;;;13.60;99.90;;;;;;5087823;28;20394;-80
2021/04/13 11:53:48;;;;;;;6.43;1.77;;;13.60;99.90;;;;;;5072127;28;20393;-81
2021/04/13 11:56:24;;;;;;;7.60;1.50;;;13.60;99.90;;;;;;5072452;28;20398;-81
2021/04/13 11:59:13;;;;;;;7.18;1.40;;;13.60;99.90;;;;;;5088481;28;20762;-82
2021/04/13 12:01:44;;;;;;;5.28;1.40;;;13.60;99.90;;;;;;5072426;28;20396;-81
2021/04/13 12:04:37;;;;;;;6.65;1.92;;;13.70;99.90;;;;;;5086958;28;20374;-81
2021/04/13 12:07:07;;;;;;;6.73;1.80;;;13.60;99.90;;;;;;5083544;28;20432;-81
2021/04/13 12:09:43;;;;;;;8.57;2.10;;;13.60;99.90;;;;;;5086570;28;20410;-81
2021/04/13 12:12:31;;;;;;;8.25;2.00;;;13.60;99.90;;;;;;5084118;28;20465;-81
2021/04/13 12:15:07;;;;;;;7.80;1.80;;;13.60;99.90;;;;;;5083904;28;20480;-81
2021/04/13 12:17:44;;;;;;;7.75;1.63;;;13.50;99.90;;;;;;5069231;28;20461;-81
2021/04/13 12:23:07;;;;;;;9.32;2.20;;;13.40;99.90;;;;;;5071167;28;20389;-80
2021/04/13 12:25:53;;;;;;;8.50;2.17;;;13.30;99.90;;;;;;5080600;28;20403;-81
2021/04/13 12:28:34;;;;;;;4.80;1.73;;;13.40;99.90;;;;;;5068775;28;20428;-81
2021/04/13 12:31:40;;;;;;;8.80;1.70;;;13.40;99.90;;;;;;5074699;28;20401;-81
2021/04/13 12:34:07;;;;;;;6.50;1.60;;;13.40;99.90;;;;;;5024116;28;20421;-82
2021/04/13 12:36:52;;;;;;;10.32;2.33;;;13.50;99.90;;;;;;5027755;28;20374;-81
2021/04/13 12:39:54;;;;;;;8.18;1.88;;;13.50;99.90;;;;;;5058900;28;20912;-80
2021/04/13 12:42:39;;;;;;;7.05;1.58;;;13.50;99.90;;;;;;5069956;28;20435;-81
2021/04/13 12:45:21;;;;;;;7.43;1.88;;;13.50;99.90;;;;;;5088429;28;20472;-81
2021/04/13 12:47:51;;;;;;;8.88;1.85;;;13.60;99.90;;;;;;5084539;28;20495;-81
2021/04/13 12:50:41;;;;;;;6.57;1.83;;;13.60;99.90;;;;;;5078705;28;20515;-81
2021/04/13 12:53:17;;;;;;;6.28;1.80;;;13.70;99.90;;;;;;5082971;28;20482;-81
2021/04/13 12:55:44;;;;;;;8.63;1.70;;;13.80;99.90;;;;;;5076196;28;20400;-81
2021/04/13 12:58:14;;;;;;;5.95;1.65;;;13.80;99.90;;;;;;5080280;28;20400;-82
2021/04/13 13:00:48;;;;;;;7.13;1.70;;;13.80;99.90;;;;;;5071184;28;20384;-81
2021/04/13 13:03:19;;;;;;;7.60;1.25;;;13.80;99.90;;;;;;5079586;28;20391;-81
2021/04/13 13:05:47;;;;;;;6.40;1.50;;;13.80;99.90;;;;;;5081480;28;20395;-82
2021/04/13 13:08:28;;;;;;;7.18;1.27;;;13.90;99.90;;;;;;5088151;28;20867;-81
2021/04/13 13:10:57;;;;;;;5.97;1.48;;;13.90;99.90;;;;;;5085905;28;20397;-82
2021/04/13 13:13:31;;;;;;;7.15;1.50;;;13.90;99.90;;;;;;5087200;28;20951;-81
2021/04/13 13:15:59;;;;;;;5.53;1.60;;;14.00;99.90;;;;;;5086750;28;20399;-82
2021/04/13 13:18:32;;;;;;;9.00;1.55;;;14.00;99.90;;;;;;5088221;28;20420;-81
2021/04/13 13:21:01;;;;;;;6.80;1.48;;;14.00;99.90;;;;;;5095086;28;20428;-82
2021/04/13 13:23:41;;;;;;;5.25;1.45;;;14.00;99.90;;;;;;5089162;28;20377;-81
2021/04/13 13:26:18;;;;;;;7.07;1.67;;;13.90;99.90;;;;;;5073444;28;20424;-82
2021/04/13 13:28:45;;;;;;;5.13;1.60;;;14.00;99.90;;;;;;5069052;28;20389;-82
2021/04/13 13:31:39;;;;;;;7.28;1.50;;;13.90;99.90;;;;;;5069069;28;20874;-82
2021/04/13 13:34:20;;;;;;;5.95;1.40;;;13.80;99.90;;;;;;5065716;28;20517;-82
2021/04/13 13:36:50;;;;;;;6.70;1.63;;;13.70;99.90;;;;;;5070344;28;20397;-82
2021/04/13 13:39:23;;;;;;;6.35;1.88;;;13.60;99.90;;;;;;5079283;28;20378;-81
2021/04/13 13:41:53;;;;;;;4.23;1.40;;;13.40;99.90;;;;;;5079353;28;20793;-85
2021/04/13 13:44:24;;;;;;;5.43;1.52;;;13.30;99.90;;;;;;5085074;28;20942;-82
2021/04/13 13:47:04;;;;;;;8.03;1.30;;;13.20;99.90;;;;;;5079586;28;20477;-82
2021/04/13 13:49:44;;;;;;;7.97;1.70;;;13.20;99.90;;;;;;5106692;27;20890;-82